sensor_id;sensor_type;location;lat;lon;timestamp;pressure;altitude;pressure_sealevel;temperature;humidity
16664;BME280;8445;51.270;9.434;2022-08-03T00:00:52;99559.47;;;18.48;nan
16664;BME280;8445;51.270;9.434;2022-08-03T00:03:18;99560.94;;;18.42;nan
16664;BME280;8445;51.270;9.434;2022-08-03T00:05:44;99558.91;;;18.36;nan
16664;BME280;8445;51.270;9.434;2022-08-03T00:08:10;99550.72;;;18.29;nan
16664;BME280;8445;51.270;9.434;2022-08-03T00:10:36;99548.19;;;18.28;nan
16664;BME280;8445;51.270;9.434;2022-08-03T00:13:03;99552.22;;;18.24;nan
16664;BME280;8445;51.270;9.434;2022-08-03T00:15:29;99559.88;;;18.18;nan
16664;BME280;8445;51.270;9.434;2022-08-03T00:17:54;99554.00;;;18.15;nan
16664;BME280;8445;51.270;9.434;2022-08-03T00:20:21;99551.97;;;18.08;nan
16664;BME280;8445;51.270;9.434;2022-08-03T00:22:47;99554.28;;;18.03;nan
16664;BME280;8445;51.270;9.434;2022-08-03T00:25:13;99548.44;;;18.00;nan
16664;BME280;8445;51.270;9.434;2022-08-03T00:27:39;99554.06;;;17.97;nan
16664;BME280;8445;51.270;9.434;2022-08-03T00:30:06;99551.41;;;17.97;nan
16664;BME280;8445;51.270;9.434;2022-08-03T00:32:32;99551.22;;;17.98;nan
16664;BME280;8445;51.270;9.434;2022-08-03T00:34:58;99553.06;;;17.98;nan
16664;BME280;8445;51.270;9.434;2022-08-03T00:37:23;99551.41;;;17.97;nan
16664;BME280;8445;51.270;9.434;2022-08-03T00:39:49;99549.72;;;17.96;nan
16664;BME280;8445;51.270;9.434;2022-08-03T00:42:15;99552.06;;;17.99;nan
16664;BME280;8445;51.270;9.434;2022-08-03T00:44:43;99547.25;;;18.02;nan
16664;BME280;8445;51.270;9.434;2022-08-03T00:47:10;99542.69;;;17.95;nan
16664;BME280;8445;51.270;9.434;2022-08-03T00:49:38;99542.69;;;17.95;nan
16664;BME280;8445;51.270;9.434;2022-08-03T00:52:06;99538.00;;;17.97;nan
16664;BME280;8445;51.270;9.434;2022-08-03T00:54:38;99536.72;;;18.01;nan
16664;BME280;8445;51.270;9.434;2022-08-03T00:57:04;99538.69;;;17.99;nan
16664;BME280;8445;51.270;9.434;2022-08-03T00:59:30;99532.84;;;17.95;nan
16664;BME280;8445;51.270;9.434;2022-08-03T01:01:57;99537.66;;;17.91;nan
16664;BME280;8445;51.270;9.434;2022-08-03T01:04:23;99549.22;;;17.92;nan
16664;BME280;8445;51.270;9.434;2022-08-03T01:07:13;99541.38;;;17.99;nan
16664;BME280;8445;51.270;9.434;2022-08-03T01:12:37;99530.06;;;18.05;nan
16664;BME280;8445;51.270;9.434;2022-08-03T01:15:43;99533.44;;;18.15;nan
16664;BME280;8445;51.270;9.434;2022-08-03T01:18:30;99540.28;;;18.18;nan
16664;BME280;8445;51.270;9.434;2022-08-03T01:21:02;99536.25;;;18.14;nan
16664;BME280;8445;51.270;9.434;2022-08-03T01:23:38;99535.44;;;18.13;nan
16664;BME280;8445;51.270;9.434;2022-08-03T01:32:48;99543.81;;;18.18;nan
16664;BME280;8445;51.270;9.434;2022-08-03T01:35:28;99533.41;;;18.07;nan
16664;BME280;8445;51.270;9.434;2022-08-03T01:38:03;99536.03;;;17.99;nan
16664;BME280;8445;51.270;9.434;2022-08-03T01:40:33;99536.66;;;17.92;nan
16664;BME280;8445;51.270;9.434;2022-08-03T01:43:02;99548.34;;;17.91;nan
16664;BME280;8445;51.270;9.434;2022-08-03T01:45:30;99538.66;;;17.90;nan
16664;BME280;8445;51.270;9.434;2022-08-03T01:47:58;99535.47;;;17.87;nan
16664;BME280;8445;51.270;9.434;2022-08-03T01:50:28;99532.94;;;17.85;nan
16664;BME280;8445;51.270;9.434;2022-08-03T01:52:56;99532.25;;;17.83;nan
16664;BME280;8445;51.270;9.434;2022-08-03T01:55:25;99527.75;;;17.84;nan
16664;BME280;8445;51.270;9.434;2022-08-03T01:57:54;99532.94;;;17.85;nan
16664;BME280;8445;51.270;9.434;2022-08-03T02:00:23;99517.88;;;17.84;nan
16664;BME280;8445;51.270;9.434;2022-08-03T02:02:53;99524.91;;;17.85;nan
16664;BME280;8445;51.270;9.434;2022-08-03T02:05:21;99525.91;;;17.84;nan
16664;BME280;8445;51.270;9.434;2022-08-03T02:07:49;99524.56;;;17.80;nan
16664;BME280;8445;51.270;9.434;2022-08-03T02:10:19;99528.75;;;17.83;nan
16664;BME280;8445;51.270;9.434;2022-08-03T02:12:48;99529.22;;;17.78;nan
16664;BME280;8445;51.270;9.434;2022-08-03T02:15:15;99524.06;;;17.76;nan
16664;BME280;8445;51.270;9.434;2022-08-03T02:17:46;99532.75;;;17.78;nan
16664;BME280;8445;51.270;9.434;2022-08-03T02:20:19;99528.41;;;17.77;nan
16664;BME280;8445;51.270;9.434;2022-08-03T02:23:28;99533.38;;;17.72;nan
16664;BME280;8445;51.270;9.434;2022-08-03T02:26:00;99525.38;;;17.72;nan
16664;BME280;8445;51.270;9.434;2022-08-03T02:28:38;99527.03;;;17.73;nan
16664;BME280;8445;51.270;9.434;2022-08-03T02:31:14;99524.16;;;17.67;nan
16664;BME280;8445;51.270;9.434;2022-08-03T02:33:51;99522.16;;;17.69;nan
16664;BME280;8445;51.270;9.434;2022-08-03T02:36:28;99522.16;;;17.69;nan
16664;BME280;8445;51.270;9.434;2022-08-03T02:38:58;99516.09;;;17.58;nan
16664;BME280;8445;51.270;9.434;2022-08-03T02:41:37;99510.13;;;17.65;nan
16664;BME280;8445;51.270;9.434;2022-08-03T02:44:08;99517.41;;;17.54;nan
16664;BME280;8445;51.270;9.434;2022-08-03T02:46:38;99512.38;;;17.51;nan
16664;BME280;8445;51.270;9.434;2022-08-03T02:49:07;99510.72;;;17.50;nan
16664;BME280;8445;51.270;9.434;2022-08-03T02:51:36;99508.53;;;17.54;nan
16664;BME280;8445;51.270;9.434;2022-08-03T02:54:05;99512.75;;;17.56;nan
16664;BME280;8445;51.270;9.434;2022-08-03T02:56:35;99510.03;;;17.48;nan
16664;BME280;8445;51.270;9.434;2022-08-03T02:59:03;99511.84;;;17.47;nan
16664;BME280;8445;51.270;9.434;2022-08-03T03:01:30;99522.41;;;17.49;nan
16664;BME280;8445;51.270;9.434;2022-08-03T03:03:57;99513.69;;;17.47;nan
16664;BME280;8445;51.270;9.434;2022-08-03T03:06:25;99518.38;;;17.45;nan
16664;BME280;8445;51.270;9.434;2022-08-03T03:08:53;99516.81;;;17.42;nan
16664;BME280;8445;51.270;9.434;2022-08-03T03:11:21;99515.00;;;17.43;nan
16664;BME280;8445;51.270;9.434;2022-08-03T03:13:49;99510.16;;;17.46;nan
16664;BME280;8445;51.270;9.434;2022-08-03T03:16:17;99512.34;;;17.43;nan
16664;BME280;8445;51.270;9.434;2022-08-03T03:18:45;99517.13;;;17.39;nan
16664;BME280;8445;51.270;9.434;2022-08-03T03:21:17;99508.28;;;17.39;nan
16664;BME280;8445;51.270;9.434;2022-08-03T03:23:45;99509.28;;;17.38;nan
16664;BME280;8445;51.270;9.434;2022-08-03T03:26:13;99513.44;;;17.32;nan
16664;BME280;8445;51.270;9.434;2022-08-03T03:28:40;99511.09;;;17.29;nan
16664;BME280;8445;51.270;9.434;2022-08-03T03:31:07;99504.19;;;17.26;nan
16664;BME280;8445;51.270;9.434;2022-08-03T03:33:35;99502.53;;;17.25;nan
16664;BME280;8445;51.270;9.434;2022-08-03T03:36:04;99510.53;;;17.25;nan
16664;BME280;8445;51.270;9.434;2022-08-03T03:38:31;99505.38;;;17.24;nan
16664;BME280;8445;51.270;9.434;2022-08-03T03:40:58;99510.03;;;17.22;nan
16664;BME280;8445;51.270;9.434;2022-08-03T03:43:24;99513.69;;;17.21;nan
16664;BME280;8445;51.270;9.434;2022-08-03T03:45:51;99511.84;;;17.21;nan
16664;BME280;8445;51.270;9.434;2022-08-03T03:48:19;99518.44;;;17.27;nan
16664;BME280;8445;51.270;9.434;2022-08-03T03:50:46;99510.53;;;17.25;nan
16664;BME280;8445;51.270;9.434;2022-08-03T03:53:14;99510.84;;;17.22;nan
16664;BME280;8445;51.270;9.434;2022-08-03T03:55:40;99514.53;;;17.21;nan
16664;BME280;8445;51.270;9.434;2022-08-03T03:58:07;99511.16;;;17.19;nan
16664;BME280;8445;51.270;9.434;2022-08-03T04:00:33;99522.53;;;17.21;nan
16664;BME280;8445;51.270;9.434;2022-08-03T04:02:59;99517.88;;;17.23;nan
16664;BME280;8445;51.270;9.434;2022-08-03T04:05:25;99516.19;;;17.22;nan
16664;BME280;8445;51.270;9.434;2022-08-03T04:08:15;99518.44;;;17.27;nan
16664;BME280;8445;51.270;9.434;2022-08-03T04:14:12;99514.06;;;17.52;nan
16664;BME280;8445;51.270;9.434;2022-08-03T04:16:46;99525.72;;;17.43;nan
16664;BME280;8445;51.270;9.434;2022-08-03T04:19:25;99516.75;;;17.52;nan
16664;BME280;8445;51.270;9.434;2022-08-03T04:21:58;99530.78;;;17.54;nan
16664;BME280;8445;51.270;9.434;2022-08-03T04:24:39;99526.19;;;17.65;nan
16664;BME280;8445;51.270;9.434;2022-08-03T04:27:08;99525.81;;;17.59;nan
16664;BME280;8445;51.270;9.434;2022-08-03T04:29:41;99525.81;;;17.68;nan
16664;BME280;8445;51.270;9.434;2022-08-03T04:32:10;99535.53;;;17.69;nan
16664;BME280;8445;51.270;9.434;2022-08-03T04:34:36;99534.91;;;17.75;nan
16664;BME280;8445;51.270;9.434;2022-08-03T04:37:10;99536.28;;;17.87;nan
16664;BME280;8445;51.270;9.434;2022-08-03T04:39:40;99542.19;;;17.91;nan
16664;BME280;8445;51.270;9.434;2022-08-03T04:42:10;99538.56;;;18.00;nan
16664;BME280;8445;51.270;9.434;2022-08-03T04:44:40;99547.28;;;18.11;nan
16664;BME280;8445;51.270;9.434;2022-08-03T04:47:07;99538.16;;;18.21;nan
16664;BME280;8445;51.270;9.434;2022-08-03T04:49:35;99540.81;;;18.30;nan
16664;BME280;8445;51.270;9.434;2022-08-03T04:52:03;99553.09;;;18.41;nan
16664;BME280;8445;51.270;9.434;2022-08-03T04:54:30;99547.44;;;18.52;nan
16664;BME280;8445;51.270;9.434;2022-08-03T04:57:03;99542.06;;;18.60;nan
16664;BME280;8445;51.270;9.434;2022-08-03T04:59:29;99550.63;;;18.72;nan
16664;BME280;8445;51.270;9.434;2022-08-03T05:01:55;99545.28;;;18.80;nan
16664;BME280;8445;51.270;9.434;2022-08-03T05:04:21;99549.16;;;18.94;nan
16664;BME280;8445;51.270;9.434;2022-08-03T05:06:47;99549.69;;;19.06;nan
16664;BME280;8445;51.270;9.434;2022-08-03T05:09:13;99557.53;;;19.16;nan
16664;BME280;8445;51.270;9.434;2022-08-03T05:11:39;99544.97;;;19.25;nan
16664;BME280;8445;51.270;9.434;2022-08-03T05:14:05;99549.66;;;19.31;nan
16664;BME280;8445;51.270;9.434;2022-08-03T05:16:30;99546.78;;;19.41;nan
16664;BME280;8445;51.270;9.434;2022-08-03T05:18:56;99546.28;;;19.46;nan
16664;BME280;8445;51.270;9.434;2022-08-03T05:21:22;99549.94;;;19.53;nan
16664;BME280;8445;51.270;9.434;2022-08-03T05:23:48;99541.22;;;19.59;nan
16664;BME280;8445;51.270;9.434;2022-08-03T05:26:14;99541.53;;;19.64;nan
16664;BME280;8445;51.270;9.434;2022-08-03T05:28:40;99545.03;;;19.73;nan
16664;BME280;8445;51.270;9.434;2022-08-03T05:31:05;99537.16;;;19.80;nan
16664;BME280;8445;51.270;9.434;2022-08-03T05:33:31;99541.63;;;19.88;nan
16664;BME280;8445;51.270;9.434;2022-08-03T05:35:57;99546.19;;;19.95;nan
16664;BME280;8445;51.270;9.434;2022-08-03T05:38:25;99542.16;;;19.99;nan
16664;BME280;8445;51.270;9.434;2022-08-03T05:40:51;99544.78;;;20.08;nan
16664;BME280;8445;51.270;9.434;2022-08-03T05:43:16;99543.06;;;20.15;nan
16664;BME280;8445;51.270;9.434;2022-08-03T05:45:42;99545.72;;;20.23;nan
16664;BME280;8445;51.270;9.434;2022-08-03T05:48:08;99542.31;;;20.29;nan
16664;BME280;8445;51.270;9.434;2022-08-03T05:50:34;99539.09;;;20.34;nan
16664;BME280;8445;51.270;9.434;2022-08-03T05:53:01;99542.59;;;20.43;nan
16664;BME280;8445;51.270;9.434;2022-08-03T05:55:27;99545.03;;;20.53;nan
16664;BME280;8445;51.270;9.434;2022-08-03T05:57:53;99547.03;;;20.59;nan
16664;BME280;8445;51.270;9.434;2022-08-03T06:00:19;99544.28;;;20.67;nan
16664;BME280;8445;51.270;9.434;2022-08-03T06:02:45;99549.78;;;20.74;nan
16664;BME280;8445;51.270;9.434;2022-08-03T06:05:11;99553.44;;;20.81;nan
16664;BME280;8445;51.270;9.434;2022-08-03T06:07:37;99550.03;;;20.87;nan
16664;BME280;8445;51.270;9.434;2022-08-03T06:10:04;99552.00;;;20.94;nan
16664;BME280;8445;51.270;9.434;2022-08-03T06:12:30;99548.25;;;21.03;nan
16664;BME280;8445;51.270;9.434;2022-08-03T06:14:56;99550.88;;;21.11;nan
16664;BME280;8445;51.270;9.434;2022-08-03T06:17:22;99545.59;;;21.18;nan
16664;BME280;8445;51.270;9.434;2022-08-03T06:19:51;99545.31;;;21.28;nan
16664;BME280;8445;51.270;9.434;2022-08-03T06:22:18;99554.16;;;21.37;nan
16664;BME280;8445;51.270;9.434;2022-08-03T06:24:46;99545.19;;;21.44;nan
16664;BME280;8445;51.270;9.434;2022-08-03T06:27:12;99549.47;;;21.54;nan
16664;BME280;8445;51.270;9.434;2022-08-03T06:29:38;99552.09;;;21.62;nan
16664;BME280;8445;51.270;9.434;2022-08-03T06:32:04;99556.38;;;21.71;nan
16664;BME280;8445;51.270;9.434;2022-08-03T06:34:30;99540.75;;;21.82;nan
16664;BME280;8445;51.270;9.434;2022-08-03T06:36:56;99554.31;;;21.88;nan
16664;BME280;8445;51.270;9.434;2022-08-03T06:39:22;99551.34;;;21.98;nan
16664;BME280;8445;51.270;9.434;2022-08-03T06:41:48;99553.94;;;22.06;nan
16664;BME280;8445;51.270;9.434;2022-08-03T06:44:16;99561.91;;;22.15;nan
16664;BME280;8445;51.270;9.434;2022-08-03T06:46:42;99562.47;;;22.25;nan
16664;BME280;8445;51.270;9.434;2022-08-03T06:49:08;99554.44;;;22.32;nan
16664;BME280;8445;51.270;9.434;2022-08-03T06:51:33;99561.88;;;22.45;nan
16664;BME280;8445;51.270;9.434;2022-08-03T06:53:59;99554.53;;;22.54;nan
16664;BME280;8445;51.270;9.434;2022-08-03T06:56:25;99556.25;;;22.61;nan
16664;BME280;8445;51.270;9.434;2022-08-03T06:58:52;99564.66;;;22.73;nan
16664;BME280;8445;51.270;9.434;2022-08-03T07:01:18;99561.41;;;22.78;nan
16664;BME280;8445;51.270;9.434;2022-08-03T07:03:44;99559.22;;;22.88;nan
16664;BME280;8445;51.270;9.434;2022-08-03T07:06:09;99558.91;;;22.98;nan
16664;BME280;8445;51.270;9.434;2022-08-03T07:08:35;99566.47;;;23.09;nan
16664;BME280;8445;51.270;9.434;2022-08-03T07:11:02;99563.44;;;23.19;nan
16664;BME280;8445;51.270;9.434;2022-08-03T07:13:28;99567.69;;;23.29;nan
16664;BME280;8445;51.270;9.434;2022-08-03T07:15:58;99557.78;;;23.36;nan
16664;BME280;8445;51.270;9.434;2022-08-03T07:18:23;99558.53;;;23.51;nan
16664;BME280;8445;51.270;9.434;2022-08-03T07:20:49;99560.88;;;23.61;nan
16664;BME280;8445;51.270;9.434;2022-08-03T07:23:15;99560.50;;;23.71;nan
16664;BME280;8445;51.270;9.434;2022-08-03T07:25:41;99557.66;;;23.79;nan
16664;BME280;8445;51.270;9.434;2022-08-03T07:28:07;99553.50;;;23.83;nan
16664;BME280;8445;51.270;9.434;2022-08-03T07:30:33;99563.75;;;23.95;nan
16664;BME280;8445;51.270;9.434;2022-08-03T07:33:00;99564.91;;;24.07;nan
16664;BME280;8445;51.270;9.434;2022-08-03T07:35:26;99566.59;;;24.15;nan
16664;BME280;8445;51.270;9.434;2022-08-03T07:37:52;99563.72;;;24.23;nan
16664;BME280;8445;51.270;9.434;2022-08-03T07:40:18;99562.50;;;24.33;nan
16664;BME280;8445;51.270;9.434;2022-08-03T07:42:44;99564.59;;;24.44;nan
16664;BME280;8445;51.270;9.434;2022-08-03T07:45:10;99563.38;;;24.53;nan
16664;BME280;8445;51.270;9.434;2022-08-03T07:47:36;99567.16;;;24.59;nan
16664;BME280;8445;51.270;9.434;2022-08-03T07:50:04;99566.75;;;24.69;nan
16664;BME280;8445;51.270;9.434;2022-08-03T07:52:30;99564.31;;;24.81;nan
16664;BME280;8445;51.270;9.434;2022-08-03T07:55:19;99559.31;;;24.91;nan
16664;BME280;8445;51.270;9.434;2022-08-03T07:57:46;99568.50;;;25.04;nan
16664;BME280;8445;51.270;9.434;2022-08-03T08:00:17;99563.09;;;25.17;nan
16664;BME280;8445;51.270;9.434;2022-08-03T08:02:44;99553.09;;;25.24;nan
16664;BME280;8445;51.270;9.434;2022-08-03T08:05:10;99553.50;;;25.35;nan
16664;BME280;8445;51.270;9.434;2022-08-03T08:07:38;99550.56;;;25.43;nan
16664;BME280;8445;51.270;9.434;2022-08-03T08:10:08;99544.75;;;25.59;nan
16664;BME280;8445;51.270;9.434;2022-08-03T08:12:36;99555.56;;;25.66;nan
16664;BME280;8445;51.270;9.434;2022-08-03T08:15:03;99547.00;;;25.76;nan
16664;BME280;8445;51.270;9.434;2022-08-03T08:17:29;99554.69;;;25.86;nan
16664;BME280;8445;51.270;9.434;2022-08-03T08:19:55;99546.94;;;25.96;nan
16664;BME280;8445;51.270;9.434;2022-08-03T08:22:22;99542.75;;;26.00;nan
16664;BME280;8445;51.270;9.434;2022-08-03T08:24:48;99555.03;;;26.10;nan
16664;BME280;8445;51.270;9.434;2022-08-03T08:27:14;99545.41;;;26.21;nan
16664;BME280;8445;51.270;9.434;2022-08-03T08:29:40;99544.13;;;26.30;nan
16664;BME280;8445;51.270;9.434;2022-08-03T08:32:06;99545.75;;;26.38;nan
16664;BME280;8445;51.270;9.434;2022-08-03T08:34:32;99550.25;;;26.51;nan
16664;BME280;8445;51.270;9.434;2022-08-03T08:36:58;99541.06;;;26.52;nan
16664;BME280;8445;51.270;9.434;2022-08-03T08:39:24;99539.31;;;26.64;nan
16664;BME280;8445;51.270;9.434;2022-08-03T08:41:50;99539.69;;;26.74;nan
16664;BME280;8445;51.270;9.434;2022-08-03T08:44:16;99540.44;;;26.88;nan
16664;BME280;8445;51.270;9.434;2022-08-03T08:46:44;99539.53;;;27.01;nan
16664;BME280;8445;51.270;9.434;2022-08-03T08:49:17;99538.19;;;27.11;nan
16664;BME280;8445;51.270;9.434;2022-08-03T08:51:47;99533.69;;;27.23;nan
16664;BME280;8445;51.270;9.434;2022-08-03T08:54:20;99535.00;;;27.39;nan
16664;BME280;8445;51.270;9.434;2022-08-03T08:56:52;99532.59;;;27.56;nan
16664;BME280;8445;51.270;9.434;2022-08-03T08:59:21;99524.75;;;27.66;nan
16664;BME280;8445;51.270;9.434;2022-08-03T09:01:48;99531.50;;;27.76;nan
16664;BME280;8445;51.270;9.434;2022-08-03T09:04:14;99538.31;;;27.85;nan
16664;BME280;8445;51.270;9.434;2022-08-03T09:06:41;99526.09;;;27.94;nan
16664;BME280;8445;51.270;9.434;2022-08-03T09:09:06;99533.31;;;28.01;nan
16664;BME280;8445;51.270;9.434;2022-08-03T09:11:32;99520.66;;;28.13;nan
16664;BME280;8445;51.270;9.434;2022-08-03T09:13:58;99522.22;;;28.21;nan
16664;BME280;8445;51.270;9.434;2022-08-03T09:16:27;99519.41;;;28.28;nan
16664;BME280;8445;51.270;9.434;2022-08-03T09:18:53;99515.63;;;28.29;nan
16664;BME280;8445;51.270;9.434;2022-08-03T09:21:26;99513.31;;;28.44;nan
16664;BME280;8445;51.270;9.434;2022-08-03T09:24:02;99511.34;;;28.51;nan
16664;BME280;8445;51.270;9.434;2022-08-03T09:26:31;99508.75;;;28.57;nan
16664;BME280;8445;51.270;9.434;2022-08-03T09:29:09;99520.41;;;28.76;nan
16664;BME280;8445;51.270;9.434;2022-08-03T09:31:39;99526.25;;;28.79;nan
16664;BME280;8445;51.270;9.434;2022-08-03T09:34:09;99511.09;;;28.83;nan
16664;BME280;8445;51.270;9.434;2022-08-03T09:37:12;99516.69;;;29.12;nan
16664;BME280;8445;51.270;9.434;2022-08-03T09:39:38;99517.63;;;29.06;nan
16664;BME280;8445;51.270;9.434;2022-08-03T09:42:16;99511.00;;;29.26;nan
16664;BME280;8445;51.270;9.434;2022-08-03T09:44:47;99512.94;;;29.37;nan
16664;BME280;8445;51.270;9.434;2022-08-03T09:47:26;99507.59;;;29.42;nan
16664;BME280;8445;51.270;9.434;2022-08-03T09:50:05;99513.25;;;29.53;nan
16664;BME280;8445;51.270;9.434;2022-08-03T09:52:38;99508.41;;;29.67;nan
16664;BME280;8445;51.270;9.434;2022-08-03T09:55:13;99506.94;;;29.76;nan
16664;BME280;8445;51.270;9.434;2022-08-03T09:57:39;99502.31;;;29.77;nan
16664;BME280;8445;51.270;9.434;2022-08-03T10:00:15;99505.38;;;29.92;nan
16664;BME280;8445;51.270;9.434;2022-08-03T10:02:43;99504.03;;;29.95;nan
16664;BME280;8445;51.270;9.434;2022-08-03T10:05:12;99502.38;;;30.06;nan
16664;BME280;8445;51.270;9.434;2022-08-03T10:07:48;99496.03;;;30.17;nan
16664;BME280;8445;51.270;9.434;2022-08-03T10:10:16;99498.53;;;30.19;nan
16664;BME280;8445;51.270;9.434;2022-08-03T10:12:45;99498.88;;;30.22;nan
16664;BME280;8445;51.270;9.434;2022-08-03T10:15:13;99494.69;;;30.31;nan
16664;BME280;8445;51.270;9.434;2022-08-03T10:17:39;99498.09;;;30.39;nan
16664;BME280;8445;51.270;9.434;2022-08-03T10:20:08;99499.00;;;30.44;nan
16664;BME280;8445;51.270;9.434;2022-08-03T10:22:37;99496.63;;;30.48;nan
16664;BME280;8445;51.270;9.434;2022-08-03T10:25:10;99481.53;;;30.57;nan
16664;BME280;8445;51.270;9.434;2022-08-03T10:27:40;99484.25;;;30.57;nan
16664;BME280;8445;51.270;9.434;2022-08-03T10:30:09;99485.91;;;30.58;nan
16664;BME280;8445;51.270;9.434;2022-08-03T10:33:21;99487.09;;;30.80;nan
16664;BME280;8445;51.270;9.434;2022-08-03T10:35:53;99477.28;;;30.67;nan
16664;BME280;8445;51.270;9.434;2022-08-03T10:38:30;99481.78;;;30.73;nan
16664;BME280;8445;51.270;9.434;2022-08-03T10:40:59;99480.97;;;30.72;nan
16664;BME280;8445;51.270;9.434;2022-08-03T10:43:35;99474.31;;;30.85;nan
16664;BME280;8445;51.270;9.434;2022-08-03T10:46:05;99466.22;;;30.90;nan
16664;BME280;8445;51.270;9.434;2022-08-03T10:48:34;99474.50;;;30.96;nan
16664;BME280;8445;51.270;9.434;2022-08-03T10:51:01;99473.81;;;31.05;nan
16664;BME280;8445;51.270;9.434;2022-08-03T10:53:38;99465.88;;;31.21;nan
16664;BME280;8445;51.270;9.434;2022-08-03T10:59:18;99460.72;;;31.42;nan
16664;BME280;8445;51.270;9.434;2022-08-03T11:01:56;99455.97;;;31.59;nan
16664;BME280;8445;51.270;9.434;2022-08-03T11:04:23;99468.00;;;31.58;nan
16664;BME280;8445;51.270;9.434;2022-08-03T11:09:46;99456.53;;;31.78;nan
16664;BME280;8445;51.270;9.434;2022-08-03T11:12:32;99452.63;;;31.97;nan
16664;BME280;8445;51.270;9.434;2022-08-03T11:15:05;99452.88;;;31.95;nan
16664;BME280;8445;51.270;9.434;2022-08-03T11:17:34;99440.28;;;31.94;nan
16664;BME280;8445;51.270;9.434;2022-08-03T11:20:00;99439.78;;;31.97;nan
16664;BME280;8445;51.270;9.434;2022-08-03T11:22:47;99440.00;;;32.18;nan
16664;BME280;8445;51.270;9.434;2022-08-03T11:25:13;99436.84;;;32.04;nan
16664;BME280;8445;51.270;9.434;2022-08-03T11:27:41;99434.41;;;32.07;nan
16664;BME280;8445;51.270;9.434;2022-08-03T11:30:27;99438.69;;;32.26;nan
16664;BME280;8445;51.270;9.434;2022-08-03T11:32:57;99434.50;;;32.18;nan
16664;BME280;8445;51.270;9.434;2022-08-03T11:35:29;99431.81;;;32.23;nan
16664;BME280;8445;51.270;9.434;2022-08-03T11:40:52;99430.88;;;32.34;nan
16664;BME280;8445;51.270;9.434;2022-08-03T11:46:24;99425.31;;;32.57;nan
16664;BME280;8445;51.270;9.434;2022-08-03T11:57:58;99419.00;;;32.94;nan
16664;BME280;8445;51.270;9.434;2022-08-03T12:09:31;99420.81;;;32.78;nan
16664;BME280;8445;51.270;9.434;2022-08-03T12:12:01;99413.06;;;32.70;nan
16664;BME280;8445;51.270;9.434;2022-08-03T12:14:29;99413.91;;;32.75;nan
16664;BME280;8445;51.270;9.434;2022-08-03T12:16:56;99408.75;;;32.79;nan
16664;BME280;8445;51.270;9.434;2022-08-03T12:19:22;99415.44;;;32.88;nan
16664;BME280;8445;51.270;9.434;2022-08-03T12:21:50;99406.44;;;32.98;nan
16664;BME280;8445;51.270;9.434;2022-08-03T12:24:16;99400.47;;;33.06;nan
16664;BME280;8445;51.270;9.434;2022-08-03T12:26:48;99406.59;;;33.24;nan
16664;BME280;8445;51.270;9.434;2022-08-03T12:29:22;99412.59;;;33.21;nan
16664;BME280;8445;51.270;9.434;2022-08-03T12:31:50;99408.44;;;33.13;nan
16664;BME280;8445;51.270;9.434;2022-08-03T12:34:16;99407.13;;;33.26;nan
16664;BME280;8445;51.270;9.434;2022-08-03T12:36:54;99405.00;;;33.38;nan
16664;BME280;8445;51.270;9.434;2022-08-03T12:39:26;99406.34;;;33.36;nan
16664;BME280;8445;51.270;9.434;2022-08-03T12:41:55;99394.28;;;33.37;nan
16664;BME280;8445;51.270;9.434;2022-08-03T12:44:34;99397.13;;;33.52;nan
16664;BME280;8445;51.270;9.434;2022-08-03T12:47:03;99384.50;;;33.46;nan
16664;BME280;8445;51.270;9.434;2022-08-03T12:49:52;99391.66;;;33.63;nan
16664;BME280;8445;51.270;9.434;2022-08-03T12:52:21;99397.78;;;33.27;nan
16664;BME280;8445;51.270;9.434;2022-08-03T12:54:55;99397.69;;;33.65;nan
16664;BME280;8445;51.270;9.434;2022-08-03T12:57:21;99395.22;;;33.58;nan
16664;BME280;8445;51.270;9.434;2022-08-03T12:59:47;99396.03;;;33.59;nan
16664;BME280;8445;51.270;9.434;2022-08-03T13:02:24;99394.16;;;33.64;nan
16664;BME280;8445;51.270;9.434;2022-08-03T13:04:52;99397.69;;;33.60;nan
16664;BME280;8445;51.270;9.434;2022-08-03T13:07:19;99391.63;;;33.58;nan
16664;BME280;8445;51.270;9.434;2022-08-03T13:09:48;99396.84;;;33.54;nan
16664;BME280;8445;51.270;9.434;2022-08-03T13:12:27;99394.25;;;33.26;nan
16664;BME280;8445;51.270;9.434;2022-08-03T13:14:59;99394.88;;;33.39;nan
16664;BME280;8445;51.270;9.434;2022-08-03T13:17:27;99386.41;;;33.46;nan
16664;BME280;8445;51.270;9.434;2022-08-03T13:19:54;99382.88;;;33.50;nan
16664;BME280;8445;51.270;9.434;2022-08-03T13:22:23;99387.53;;;33.60;nan
16664;BME280;8445;51.270;9.434;2022-08-03T13:24:52;99377.97;;;33.68;nan
16664;BME280;8445;51.270;9.434;2022-08-03T13:27:20;99383.75;;;33.77;nan
16664;BME280;8445;51.270;9.434;2022-08-03T13:29:46;99376.34;;;33.82;nan
16664;BME280;8445;51.270;9.434;2022-08-03T13:32:12;99378.59;;;33.96;nan
16664;BME280;8445;51.270;9.434;2022-08-03T13:34:38;99380.28;;;34.07;nan
16664;BME280;8445;51.270;9.434;2022-08-03T13:37:04;99374.78;;;34.12;nan
16664;BME280;8445;51.270;9.434;2022-08-03T13:39:30;99375.06;;;34.26;nan
16664;BME280;8445;51.270;9.434;2022-08-03T13:41:56;99374.75;;;34.33;nan
16664;BME280;8445;51.270;9.434;2022-08-03T13:44:22;99374.25;;;34.47;nan
16664;BME280;8445;51.270;9.434;2022-08-03T13:46:48;99373.41;;;34.51;nan
16664;BME280;8445;51.270;9.434;2022-08-03T13:49:14;99369.31;;;34.54;nan
16664;BME280;8445;51.270;9.434;2022-08-03T13:51:41;99367.09;;;34.56;nan
16664;BME280;8445;51.270;9.434;2022-08-03T13:54:07;99364.91;;;34.53;nan
16664;BME280;8445;51.270;9.434;2022-08-03T13:56:33;99361.63;;;34.51;nan
16664;BME280;8445;51.270;9.434;2022-08-03T13:58:59;99363.50;;;34.55;nan
16664;BME280;8445;51.270;9.434;2022-08-03T14:01:25;99363.81;;;34.59;nan
16664;BME280;8445;51.270;9.434;2022-08-03T14:03:51;99355.56;;;34.54;nan
16664;BME280;8445;51.270;9.434;2022-08-03T14:06:25;99356.13;;;34.51;nan
16664;BME280;8445;51.270;9.434;2022-08-03T14:08:51;99347.31;;;34.33;nan
16664;BME280;8445;51.270;9.434;2022-08-03T14:11:17;99344.56;;;34.18;nan
16664;BME280;8445;51.270;9.434;2022-08-03T14:13:44;99355.03;;;34.05;nan
16664;BME280;8445;51.270;9.434;2022-08-03T14:16:10;99348.44;;;34.01;nan
16664;BME280;8445;51.270;9.434;2022-08-03T14:18:39;99345.38;;;33.97;nan
16664;BME280;8445;51.270;9.434;2022-08-03T14:21:06;99346.47;;;33.96;nan
16664;BME280;8445;51.270;9.434;2022-08-03T14:23:36;99351.16;;;34.01;nan
16664;BME280;8445;51.270;9.434;2022-08-03T14:26:07;99335.81;;;34.05;nan